createdAt,value
2023-01-11T00:00:56.932Z,3.79
2023-01-11T00:03:59.363Z,3.85
2023-01-11T00:07:01.700Z,3.89
2023-01-11T00:10:04.955Z,3.85
2023-01-11T00:13:07.616Z,3.70
2023-01-11T00:16:10.278Z,3.59
2023-01-11T00:19:12.913Z,3.44
2023-01-11T00:22:15.176Z,3.35
2023-01-11T00:25:18.828Z,3.30
2023-01-11T00:28:21.045Z,3.28
2023-01-11T00:31:23.519Z,3.23
2023-01-11T00:34:25.962Z,3.19
2023-01-11T00:37:28.169Z,3.17
2023-01-11T00:40:30.589Z,3.21
2023-01-11T00:43:51.021Z,3.20
2023-01-11T00:47:13.402Z,3.21
2023-01-11T00:50:15.762Z,3.16
2023-01-11T00:53:19.421Z,3.16
2023-01-11T00:56:21.828Z,3.15
2023-01-11T00:59:24.045Z,3.11
2023-01-11T01:02:27.493Z,3.10
2023-01-11T01:05:29.787Z,3.15
2023-01-11T01:08:31.994Z,3.20
2023-01-11T01:11:34.160Z,3.25
2023-01-11T01:14:37.029Z,3.26
2023-01-11T01:17:39.349Z,3.22
2023-01-11T01:20:41.568Z,3.21
2023-01-11T01:23:43.897Z,3.24
2023-01-11T01:26:46.654Z,3.27
2023-01-11T01:29:48.870Z,3.32
2023-01-11T01:32:51.166Z,3.29
2023-01-11T01:35:53.438Z,3.31
2023-01-11T01:38:55.742Z,3.30
2023-01-11T01:41:58.692Z,3.26
2023-01-11T01:45:24.775Z,3.27
2023-01-11T01:48:28.197Z,3.33
2023-01-11T01:51:41.640Z,3.40
2023-01-11T01:54:46.600Z,3.38
2023-01-11T01:57:50.967Z,3.40
2023-01-11T02:00:53.761Z,3.39
2023-01-11T02:03:56.108Z,3.40
2023-01-11T02:07:03.618Z,3.40
2023-01-11T02:10:21.333Z,3.41
2023-01-11T02:13:24.927Z,3.43
2023-01-11T02:16:27.216Z,3.39
2023-01-11T02:19:57.738Z,3.40
2023-01-11T02:23:14.955Z,3.39
2023-01-11T02:26:29.022Z,3.30
2023-01-11T02:29:37.075Z,3.29
2023-01-11T02:32:53.040Z,3.30
2023-01-11T02:36:16.821Z,3.27
2023-01-11T02:39:48.884Z,3.14
2023-01-11T02:43:24.010Z,3.04
2023-01-11T02:46:44.574Z,2.99
2023-01-11T02:50:08.240Z,2.95
2023-01-11T02:53:23.745Z,2.93
2023-01-11T02:56:29.517Z,2.86
2023-01-11T02:59:34.944Z,2.80
2023-01-11T03:02:37.180Z,2.76
2023-01-11T03:05:57.455Z,2.69
2023-01-11T03:09:27.041Z,2.65
2023-01-11T03:12:51.864Z,2.57
2023-01-11T03:15:56.785Z,2.44
2023-01-11T03:18:58.961Z,2.36
2023-01-11T03:22:12.121Z,2.21
2023-01-11T03:25:22.313Z,2.09
2023-01-11T03:28:39.796Z,1.99
2023-01-11T03:31:50.159Z,1.85
2023-01-11T03:35:26.023Z,1.75
2023-01-11T03:38:37.181Z,1.67
2023-01-11T03:41:41.921Z,1.66
2023-01-11T03:44:48.903Z,1.73
2023-01-11T03:47:53.778Z,1.77
2023-01-11T03:50:58.742Z,1.82
2023-01-11T03:54:04.494Z,1.85
2023-01-11T03:57:06.659Z,1.89
2023-01-11T04:00:10.115Z,1.92
2023-01-11T04:03:12.885Z,1.91
2023-01-11T04:06:15.316Z,1.92
2023-01-11T04:09:17.676Z,1.92
2023-01-11T04:12:20.081Z,1.92
2023-01-11T04:15:22.775Z,1.97
2023-01-11T04:18:26.114Z,2.00
2023-01-11T04:21:29.083Z,1.93
2023-01-11T04:24:31.298Z,1.87
2023-01-11T04:27:33.495Z,1.89
2023-01-11T04:30:36.104Z,1.95
2023-01-11T04:33:38.935Z,1.97
2023-01-11T04:36:42.108Z,1.93
2023-01-11T04:39:44.309Z,1.95
2023-01-11T04:42:46.936Z,1.97
2023-01-11T04:45:49.634Z,1.96
2023-01-11T04:48:52.325Z,1.96
2023-01-11T04:51:54.572Z,1.86
2023-01-11T04:54:57.846Z,1.83
2023-01-11T04:58:00.071Z,1.81
2023-01-11T05:01:12.152Z,1.82
2023-01-11T05:04:14.489Z,1.80
2023-01-11T05:07:16.884Z,1.80
2023-01-11T05:10:21.050Z,1.80
2023-01-11T05:13:42.966Z,1.80
2023-01-11T05:16:45.420Z,1.77
2023-01-11T05:19:47.728Z,1.84
2023-01-11T05:22:50.131Z,1.82
2023-01-11T05:25:52.385Z,1.82
2023-01-11T05:28:56.817Z,1.82
2023-01-11T05:31:59.161Z,1.74
2023-01-11T05:35:01.516Z,1.71
2023-01-11T05:38:03.779Z,1.59
2023-01-11T05:41:08.449Z,1.57
2023-01-11T05:44:32.276Z,1.59
2023-01-11T05:47:34.638Z,1.59
2023-01-11T05:50:37.093Z,1.58
2023-01-11T05:53:39.412Z,1.55
2023-01-11T05:56:45.097Z,1.51
2023-01-11T05:59:47.439Z,1.42
2023-01-11T06:02:49.843Z,1.45
2023-01-11T06:05:54.505Z,1.39
2023-01-11T06:08:57.990Z,1.42
2023-01-11T06:12:00.387Z,1.50
2023-01-11T06:15:02.718Z,1.53
2023-01-11T06:18:04.968Z,1.52
2023-01-11T06:21:07.927Z,1.54
2023-01-11T06:24:10.371Z,1.55
2023-01-11T06:27:12.655Z,1.54
2023-01-11T06:30:15.148Z,1.52
2023-01-11T06:33:17.559Z,1.62
2023-01-11T06:36:20.139Z,1.69
2023-01-11T06:39:22.414Z,1.75
2023-01-11T06:42:24.629Z,1.77
2023-01-11T06:45:27.191Z,1.70
2023-01-11T06:48:29.556Z,1.73
2023-01-11T06:51:31.930Z,1.78
2023-01-11T06:54:34.242Z,1.82
2023-01-11T06:57:37.115Z,1.81
2023-01-11T07:00:40.327Z,1.84
2023-01-11T07:03:45.723Z,1.80
2023-01-11T07:06:49.091Z,1.83
2023-01-11T07:09:54.174Z,1.96
2023-01-11T07:12:57.528Z,2.06
2023-01-11T07:16:02.287Z,2.14
2023-01-11T07:19:05.287Z,2.23
2023-01-11T07:22:08.975Z,2.54
2023-01-11T07:25:12.271Z,2.92
2023-01-11T07:28:14.736Z,3.14
2023-01-11T07:31:17.100Z,3.98
2023-01-11T07:34:19.546Z,4.84
2023-01-11T07:37:29.316Z,5.33
2023-01-11T07:40:31.868Z,6.34
2023-01-11T07:43:34.127Z,7.04
2023-01-11T07:46:37.414Z,7.19
2023-01-11T07:49:39.746Z,7.52
2023-01-11T07:52:50.731Z,7.74
2023-01-11T07:55:55.516Z,7.97
2023-01-11T07:58:57.891Z,8.32
2023-01-11T08:02:00.277Z,8.63
2023-01-11T08:05:03.420Z,8.66
2023-01-11T08:08:07.675Z,8.12
2023-01-11T08:11:30.005Z,7.61
2023-01-11T08:14:57.367Z,7.02
2023-01-11T08:18:00.648Z,7.41
2023-01-11T08:21:03.182Z,6.46
2023-01-11T08:24:05.789Z,5.75
2023-01-11T08:27:08.259Z,5.40
2023-01-11T08:30:12.149Z,5.16
2023-01-11T08:33:14.623Z,4.95
2023-01-11T08:36:17.041Z,4.79
2023-01-11T08:39:20.978Z,4.66
2023-01-11T08:42:23.463Z,4.59
2023-01-11T08:45:26.529Z,4.72
2023-01-11T08:48:28.881Z,4.70
2023-01-11T08:51:32.378Z,4.56
2023-01-11T08:54:35.939Z,4.62
2023-01-11T08:57:38.291Z,4.62
2023-01-11T09:00:41.814Z,4.75
2023-01-11T09:03:44.116Z,4.89
2023-01-11T09:06:47.281Z,5.00
2023-01-11T09:09:50.802Z,5.13
2023-01-11T09:12:54.607Z,5.30
2023-01-11T09:15:58.037Z,5.79
2023-01-11T09:19:00.338Z,6.67
2023-01-11T09:22:03.362Z,7.95
2023-01-11T09:25:06.434Z,9.60
2023-01-11T09:28:08.689Z,10.99
2023-01-11T09:31:11.067Z,12.04
2023-01-11T09:34:13.912Z,12.49
2023-01-11T09:37:19.163Z,12.92
2023-01-11T09:40:52.030Z,13.37
2023-01-11T09:44:16.420Z,13.89
2023-01-11T09:47:44.248Z,14.17
2023-01-11T09:50:49.468Z,14.62
2023-01-11T09:53:54.152Z,14.92
2023-01-11T09:57:38.272Z,15.42
2023-01-11T10:01:01.487Z,15.94
2023-01-11T10:04:37.257Z,15.90
2023-01-11T10:18:33.477Z,16.31
2023-01-11T10:22:31.754Z,16.44
2023-01-11T10:25:51.457Z,16.35
2023-01-11T10:29:23.742Z,16.48
2023-01-11T10:32:48.159Z,16.64
2023-01-11T10:36:16.412Z,16.85
2023-01-11T10:39:51.316Z,16.98
2023-01-11T10:43:20.751Z,17.37
2023-01-11T10:46:26.343Z,17.52
2023-01-11T10:49:51.551Z,17.48
2023-01-11T10:53:24.995Z,17.68
2023-01-11T10:57:02.536Z,17.81
2023-01-11T11:00:24.816Z,17.53
2023-01-11T11:04:08.193Z,17.56
2023-01-11T11:07:22.534Z,17.57
2023-01-11T11:10:36.835Z,17.42
2023-01-11T11:14:06.968Z,17.46
2023-01-11T11:17:27.967Z,17.41
2023-01-11T11:20:33.359Z,17.43
2023-01-11T11:23:39.657Z,17.14
2023-01-11T11:26:52.098Z,16.53
2023-01-11T11:29:57.346Z,15.69
2023-01-11T11:33:25.533Z,15.47
2023-01-11T11:36:41.532Z,14.87
2023-01-11T11:39:43.920Z,14.30
2023-01-11T11:42:46.372Z,13.48
2023-01-11T11:45:59.927Z,12.12
2023-01-11T11:49:18.272Z,11.49
2023-01-11T11:52:20.880Z,11.18
2023-01-11T11:55:30.920Z,11.02
2023-01-11T11:58:33.874Z,10.86
2023-01-11T12:01:40.157Z,10.65
2023-01-11T12:04:48.539Z,10.55
2023-01-11T12:07:55.876Z,10.47
2023-01-11T12:11:05.700Z,10.25
2023-01-11T12:14:11.004Z,10.19
2023-01-11T12:17:24.276Z,10.23
2023-01-11T12:20:30.995Z,10.18
2023-01-11T12:23:33.986Z,10.20
2023-01-11T12:26:51.619Z,10.25
2023-01-11T12:30:12.836Z,10.25
2023-01-11T12:33:49.722Z,10.15
2023-01-11T12:37:37.015Z,10.15
2023-01-11T12:40:54.664Z,10.13
2023-01-11T12:44:17.932Z,10.07
2023-01-11T12:47:35.440Z,10.02
2023-01-11T12:53:59.604Z,10.06
2023-01-11T12:57:41.960Z,9.97
2023-01-11T13:01:17.764Z,9.92
2023-01-11T13:04:41.338Z,9.94
2023-01-11T13:08:08.285Z,9.83
2023-01-11T13:11:48.102Z,9.77
2023-01-11T13:15:24.157Z,9.71
2023-01-11T13:18:59.905Z,9.73
2023-01-11T13:22:05.474Z,9.66
2023-01-11T13:25:38.792Z,9.54
2023-01-11T13:28:45.548Z,9.48
2023-01-11T13:31:50.325Z,9.42
2023-01-11T13:35:19.376Z,9.32
2023-01-11T13:38:34.688Z,9.26
2023-01-11T13:41:58.303Z,9.18
2023-01-11T13:45:19.260Z,9.08
2023-01-11T13:48:33.778Z,8.99
2023-01-11T13:51:57.749Z,8.90
2023-01-11T13:55:14.293Z,8.82
2023-01-11T13:58:28.983Z,8.74
2023-01-11T14:01:55.406Z,8.64
2023-01-11T14:05:21.496Z,8.46
2023-01-11T14:08:51.667Z,8.41
2023-01-11T14:12:05.959Z,8.28
2023-01-11T14:15:23.258Z,8.14
2023-01-11T14:18:37.105Z,8.02
2023-01-11T14:21:57.996Z,7.84
2023-01-11T14:25:32.709Z,7.65
2023-01-11T14:28:46.849Z,7.53
2023-01-11T14:32:11.019Z,7.45
2023-01-11T14:35:45.601Z,7.34
2023-01-11T14:39:19.536Z,7.23
2023-01-11T14:42:34.979Z,7.14
2023-01-11T14:46:15.550Z,7.00
2023-01-11T14:49:44.177Z,6.82
2023-01-11T14:52:48.158Z,6.69
2023-01-11T14:55:51.785Z,6.57
2023-01-11T14:59:06.399Z,6.46
2023-01-11T15:02:16.414Z,6.36
2023-01-11T15:05:45.691Z,6.24
2023-01-11T15:08:54.447Z,6.17
2023-01-11T15:12:12.003Z,6.08
2023-01-11T15:15:14.287Z,6.00
2023-01-11T15:18:22.999Z,5.87
2023-01-11T15:21:27.302Z,5.80
2023-01-11T15:24:32.360Z,5.70
2023-01-11T15:27:37.322Z,5.59
2023-01-11T15:30:39.709Z,5.48
2023-01-11T15:33:48.139Z,5.33
2023-01-11T15:37:03.482Z,5.36
2023-01-11T15:40:19.048Z,5.28
2023-01-11T15:44:07.526Z,5.25
2023-01-11T15:47:15.541Z,5.15
2023-01-11T15:50:35.774Z,5.10
2023-01-11T15:53:38.041Z,5.05
2023-01-11T15:56:58.709Z,4.99
2023-01-11T16:00:22.637Z,4.91
2023-01-11T16:03:50.676Z,4.88
2023-01-11T16:07:02.237Z,4.81
2023-01-11T16:10:39.216Z,4.76
2023-01-11T16:14:12.075Z,4.74
2023-01-11T16:17:19.238Z,4.68
2023-01-11T16:20:29.184Z,4.68
2023-01-11T16:23:32.556Z,4.64
2023-01-11T16:26:41.241Z,4.64
2023-01-11T16:29:50.125Z,4.55
2023-01-11T16:32:52.504Z,4.43
2023-01-11T16:36:03.749Z,4.44
2023-01-11T16:39:13.458Z,4.43
2023-01-11T16:42:15.900Z,4.39
2023-01-11T16:45:38.759Z,4.41
2023-01-11T16:48:41.129Z,4.38
2023-01-11T16:51:43.576Z,4.42
2023-01-11T16:54:48.926Z,4.40
2023-01-11T16:57:58.518Z,4.33
2023-01-11T17:01:07.966Z,4.28
2023-01-11T17:04:36.389Z,4.18
2023-01-11T17:07:38.657Z,4.20
2023-01-11T17:10:40.965Z,4.21
2023-01-11T17:13:53.405Z,4.24
2023-01-11T17:17:02.375Z,4.24
2023-01-11T17:20:15.799Z,4.17
2023-01-11T17:23:21.657Z,4.07
2023-01-11T17:26:37.094Z,4.09
2023-01-11T17:29:40.773Z,4.13
2023-01-11T17:32:46.089Z,4.12
2023-01-11T17:35:48.425Z,4.12
2023-01-11T17:38:50.896Z,4.12
2023-01-11T17:42:12.302Z,4.19
2023-01-11T17:45:25.878Z,4.20
2023-01-11T17:48:29.839Z,4.14
2023-01-11T17:51:35.010Z,3.96
2023-01-11T17:54:37.443Z,3.77
2023-01-11T17:57:41.410Z,3.69
2023-01-11T18:00:47.077Z,3.66
2023-01-11T18:03:56.983Z,3.58
2023-01-11T18:07:16.162Z,3.50
2023-01-11T18:10:22.391Z,3.28
2023-01-11T18:13:36.953Z,3.16
2023-01-11T18:16:59.597Z,3.06
2023-01-11T18:20:23.735Z,2.99
2023-01-11T18:23:26.980Z,2.96
2023-01-11T18:26:31.925Z,2.96
2023-01-11T18:29:36.986Z,2.90
2023-01-11T18:32:44.225Z,2.84
2023-01-11T18:35:49.669Z,2.87
2023-01-11T18:38:52.382Z,2.85
2023-01-11T18:42:07.353Z,2.81
2023-01-11T18:45:13.027Z,2.85
2023-01-11T18:48:15.874Z,2.85
2023-01-11T18:51:29.136Z,2.73
2023-01-11T18:54:31.539Z,2.62
2023-01-11T18:57:34.018Z,2.61
2023-01-11T19:00:37.561Z,2.62
2023-01-11T19:03:46.218Z,2.49
2023-01-11T19:06:48.640Z,2.45
2023-01-11T19:09:51.056Z,2.47
2023-01-11T19:12:53.915Z,2.52
2023-01-11T19:15:56.720Z,2.53
2023-01-11T19:18:59.133Z,2.50
2023-01-11T19:22:01.390Z,2.46
2023-01-11T19:25:04.896Z,2.34
2023-01-11T19:28:07.647Z,2.23
2023-01-11T19:31:13.378Z,2.12
2023-01-11T19:34:15.902Z,2.07
2023-01-11T19:37:19.573Z,2.08
2023-01-11T19:40:21.891Z,2.00
2023-01-11T19:43:24.388Z,1.96
2023-01-11T19:46:32.021Z,2.03
2023-01-11T19:49:34.653Z,2.01
2023-01-11T19:52:36.889Z,1.94
2023-01-11T19:55:39.481Z,1.85
2023-01-11T19:58:41.803Z,1.78
2023-01-11T20:01:45.377Z,1.74
2023-01-11T20:04:48.000Z,1.73
2023-01-11T20:07:50.492Z,1.76
2023-01-11T20:10:53.874Z,1.80
2023-01-11T20:13:56.205Z,1.75
2023-01-11T20:16:58.463Z,1.71
2023-01-11T20:20:00.671Z,1.63
2023-01-11T20:23:03.016Z,1.60
2023-01-11T20:26:15.071Z,1.68
2023-01-11T20:29:17.781Z,1.69
2023-01-11T20:32:39.607Z,1.71
2023-01-11T20:35:42.578Z,1.66
2023-01-11T20:38:45.570Z,1.58
2023-01-11T20:41:47.917Z,1.41
2023-01-11T20:44:50.166Z,1.32
2023-01-11T20:47:52.469Z,1.24
2023-01-11T20:50:54.775Z,1.19
2023-01-11T20:53:57.003Z,1.20
2023-01-11T20:57:03.212Z,1.16
2023-01-11T21:03:26.354Z,1.13
2023-01-11T21:06:30.846Z,1.05
2023-01-11T21:09:33.186Z,0.98
2023-01-11T21:12:35.560Z,1.01
2023-01-11T21:15:38.128Z,1.02
2023-01-11T21:18:43.665Z,0.95
2023-01-11T21:21:47.042Z,0.91
2023-01-11T21:24:50.368Z,0.91
2023-01-11T21:27:52.716Z,0.96
2023-01-11T21:31:01.716Z,0.91
2023-01-11T21:34:04.636Z,0.88
2023-01-11T21:37:07.269Z,0.95
2023-01-11T21:40:10.036Z,0.96
2023-01-11T21:43:14.781Z,0.96
2023-01-11T21:46:18.181Z,0.92
2023-01-11T21:49:22.497Z,0.95
2023-01-11T21:52:24.785Z,0.97
2023-01-11T21:55:27.203Z,0.96
2023-01-11T21:58:29.514Z,0.96
2023-01-11T22:01:31.810Z,0.95
2023-01-11T22:04:35.360Z,0.87
2023-01-11T22:07:40.261Z,0.77
2023-01-11T22:10:45.652Z,0.67
2023-01-11T22:13:47.904Z,0.64
2023-01-11T22:16:50.562Z,0.75
2023-01-11T22:19:53.506Z,0.73
2023-01-11T22:22:55.767Z,0.73
2023-01-11T22:26:03.161Z,0.63
2023-01-11T22:29:14.854Z,0.59
2023-01-11T22:32:18.021Z,0.58
2023-01-11T22:35:20.287Z,0.52
2023-01-11T22:38:22.607Z,0.50
2023-01-11T22:41:26.078Z,0.46
2023-01-11T22:44:28.438Z,0.47
2023-01-11T22:47:31.180Z,0.45
2023-01-11T22:50:33.445Z,0.42
2023-01-11T22:53:43.382Z,0.39
2023-01-11T22:56:45.759Z,0.33
2023-01-11T22:59:48.126Z,0.38
2023-01-11T23:02:50.422Z,0.35
2023-01-11T23:05:52.648Z,0.31
2023-01-11T23:08:55.351Z,0.34
2023-01-11T23:12:16.277Z,0.34
2023-01-11T23:15:18.482Z,0.42
2023-01-11T23:18:21.279Z,0.43
2023-01-11T23:21:23.808Z,0.45
2023-01-11T23:24:26.088Z,0.52
2023-01-11T23:27:28.424Z,0.51
2023-01-11T23:30:30.891Z,0.57
2023-01-11T23:33:33.329Z,0.52
2023-01-11T23:36:41.055Z,0.50
2023-01-11T23:39:43.438Z,0.43
2023-01-11T23:42:45.870Z,0.41
2023-01-11T23:45:48.168Z,0.41
2023-01-11T23:48:50.961Z,0.43
2023-01-11T23:51:54.819Z,0.40
2023-01-11T23:54:57.371Z,0.34
2023-01-11T23:58:09.606Z,0.32
